createdAt,value
2023-03-06T00:00:43.525Z,0.00
2023-03-06T00:01:43.455Z,0.00
2023-03-06T00:02:43.442Z,0.00
2023-03-06T00:03:43.430Z,0.00
2023-03-06T00:04:43.373Z,0.00
2023-03-06T00:05:43.387Z,0.00
2023-03-06T00:06:43.349Z,0.00
2023-03-06T00:07:43.310Z,0.00
2023-03-06T00:08:43.284Z,0.00
2023-03-06T00:09:43.253Z,0.00
2023-03-06T00:10:43.223Z,0.00
2023-03-06T00:11:43.221Z,0.00
2023-03-06T00:12:43.210Z,0.00
2023-03-06T00:13:43.144Z,0.00
2023-03-06T00:14:43.120Z,0.00
2023-03-06T00:15:43.097Z,0.00
2023-03-06T00:16:43.064Z,0.00
2023-03-06T00:17:43.057Z,0.00
2023-03-06T00:18:43.015Z,0.00
2023-03-06T00:19:43.015Z,0.00
2023-03-06T00:20:42.963Z,0.00
2023-03-06T00:21:42.945Z,0.00
2023-03-06T00:22:42.918Z,0.00
2023-03-06T00:23:42.887Z,0.00
2023-03-06T00:24:42.861Z,0.00
2023-03-06T00:25:42.857Z,0.00
2023-03-06T00:26:42.812Z,0.00
2023-03-06T00:27:42.785Z,0.00
2023-03-06T00:28:42.784Z,0.00
2023-03-06T00:29:42.733Z,0.00
2023-03-06T00:30:42.700Z,0.00
2023-03-06T00:31:42.713Z,0.00
2023-03-06T00:32:42.655Z,0.00
2023-03-06T00:33:42.624Z,0.00
2023-03-06T00:34:42.598Z,0.00
2023-03-06T00:35:42.626Z,0.00
2023-03-06T00:36:42.594Z,0.00
2023-03-06T00:37:42.550Z,0.00
2023-03-06T00:38:42.491Z,0.00
2023-03-06T00:39:42.508Z,0.00
2023-03-06T00:40:42.447Z,0.00
2023-03-06T00:41:42.421Z,0.00
2023-03-06T00:42:42.387Z,0.00
2023-03-06T00:43:42.362Z,0.00
2023-03-06T00:44:42.340Z,0.00
2023-03-06T00:45:42.351Z,0.00
2023-03-06T00:46:42.285Z,0.00
2023-03-06T00:47:42.273Z,0.00
2023-03-06T00:48:42.236Z,0.00
2023-03-06T00:49:42.218Z,0.00
2023-03-06T00:50:42.183Z,0.00
2023-03-06T00:51:42.161Z,0.00
2023-03-06T00:52:42.233Z,0.00
2023-03-06T00:53:42.111Z,0.00
2023-03-06T00:54:42.083Z,0.00
2023-03-06T00:55:42.053Z,0.00
2023-03-06T00:56:42.041Z,0.00
2023-03-06T00:57:42.005Z,0.00
2023-03-06T00:58:41.976Z,0.00
2023-03-06T00:59:41.961Z,0.00
2023-03-06T01:00:41.979Z,0.00
2023-03-06T01:01:41.909Z,0.00
2023-03-06T01:02:41.916Z,0.00
2023-03-06T01:03:41.875Z,0.00
2023-03-06T01:04:41.836Z,0.00
2023-03-06T01:05:41.796Z,0.00
2023-03-06T01:06:41.773Z,0.00
2023-03-06T01:07:41.742Z,0.00
2023-03-06T01:08:41.709Z,0.00
2023-03-06T01:09:41.775Z,0.00
2023-03-06T01:10:41.671Z,0.00
2023-03-06T01:11:41.652Z,0.00
2023-03-06T01:12:41.669Z,0.00
2023-03-06T01:13:41.612Z,0.00
2023-03-06T01:14:41.574Z,0.00
2023-03-06T01:15:41.537Z,0.00
2023-03-06T01:16:41.568Z,0.00
2023-03-06T01:17:41.509Z,0.00
2023-03-06T01:18:41.452Z,0.00
2023-03-06T01:19:41.454Z,0.00
2023-03-06T01:20:41.470Z,0.00
2023-03-06T01:21:41.386Z,0.00
2023-03-06T01:22:41.353Z,0.00
2023-03-06T01:23:41.330Z,0.00
2023-03-06T01:24:41.296Z,0.00
2023-03-06T01:25:41.286Z,0.00
2023-03-06T01:26:41.254Z,0.00
2023-03-06T01:27:41.229Z,0.00
2023-03-06T01:28:41.226Z,0.00
2023-03-06T01:29:41.168Z,0.00
2023-03-06T01:30:41.151Z,0.00
2023-03-06T01:31:41.169Z,0.00
2023-03-06T01:32:41.140Z,0.00
2023-03-06T01:33:41.089Z,0.00
2023-03-06T01:34:41.048Z,0.00
2023-03-06T01:35:41.092Z,0.00
2023-03-06T01:36:40.995Z,0.00
2023-03-06T01:37:40.960Z,0.00
2023-03-06T01:38:40.942Z,0.00
2023-03-06T01:39:40.926Z,0.00
2023-03-06T01:40:40.917Z,0.00
2023-03-06T01:41:40.869Z,0.00
2023-03-06T01:42:40.844Z,0.00
2023-03-06T01:43:40.819Z,0.00
2023-03-06T01:44:40.793Z,0.00
2023-03-06T01:45:40.773Z,0.00
2023-03-06T01:46:40.739Z,0.00
2023-03-06T01:47:40.710Z,0.00
2023-03-06T01:48:40.683Z,0.00
2023-03-06T01:49:40.663Z,0.00
2023-03-06T01:50:40.636Z,0.00
2023-03-06T01:51:40.621Z,0.00
2023-03-06T01:52:40.597Z,0.00
2023-03-06T01:53:40.564Z,0.00
2023-03-06T01:54:40.535Z,0.00
2023-03-06T01:55:40.499Z,0.00
2023-03-06T01:56:40.488Z,0.00
2023-03-06T01:57:40.492Z,0.00
2023-03-06T01:58:40.429Z,0.00
2023-03-06T01:59:40.404Z,0.00
2023-03-06T02:00:40.374Z,0.00
2023-03-06T02:01:40.347Z,0.00
2023-03-06T02:02:40.357Z,0.00
2023-03-06T02:03:40.298Z,0.00
2023-03-06T02:04:40.277Z,0.00
2023-03-06T02:05:40.248Z,0.00
2023-03-06T02:06:40.220Z,0.00
2023-03-06T02:07:40.196Z,0.00
2023-03-06T02:08:40.177Z,0.00
2023-03-06T02:09:40.141Z,0.00
2023-03-06T02:10:40.124Z,0.00
2023-03-06T02:11:40.213Z,0.00
2023-03-06T02:12:40.061Z,0.00
2023-03-06T02:13:40.044Z,0.00
2023-03-06T02:14:40.046Z,0.00
2023-03-06T02:15:40.001Z,0.00
2023-03-06T02:16:40.087Z,0.00
2023-03-06T02:17:39.936Z,0.00
2023-03-06T02:18:39.912Z,0.00
2023-03-06T02:19:39.875Z,0.00
2023-03-06T02:20:39.856Z,0.00
2023-03-06T02:21:39.830Z,0.00
2023-03-06T02:22:39.810Z,0.00
2023-03-06T02:23:39.785Z,0.00
2023-03-06T02:24:39.758Z,0.00
2023-03-06T02:25:39.724Z,0.00
2023-03-06T02:26:39.708Z,0.00
2023-03-06T02:27:39.679Z,0.00
2023-03-06T02:28:39.661Z,0.00
2023-03-06T02:29:39.634Z,0.00
2023-03-06T02:30:39.620Z,0.00
2023-03-06T02:31:39.571Z,0.00
2023-03-06T02:32:39.591Z,0.00
2023-03-06T02:33:39.534Z,0.00
2023-03-06T02:34:39.525Z,0.00
2023-03-06T02:35:39.509Z,0.00
2023-03-06T02:36:39.454Z,0.00
2023-03-06T02:37:39.429Z,0.00
2023-03-06T02:38:39.400Z,0.00
2023-03-06T02:39:39.378Z,0.00
2023-03-06T02:40:39.355Z,0.00
2023-03-06T02:41:39.312Z,0.00
2023-03-06T02:42:39.286Z,0.00
2023-03-06T02:43:39.262Z,0.00
2023-03-06T02:44:39.300Z,0.00
2023-03-06T02:45:39.215Z,0.00
2023-03-06T02:46:39.190Z,0.00
2023-03-06T02:47:39.201Z,0.00
2023-03-06T02:48:39.135Z,0.00
2023-03-06T02:49:39.101Z,0.00
2023-03-06T02:50:39.080Z,0.00
2023-03-06T02:51:39.056Z,0.00
2023-03-06T02:52:39.036Z,0.00
2023-03-06T02:53:39.051Z,0.00
2023-03-06T02:54:39.015Z,0.00
2023-03-06T02:55:38.987Z,0.00
2023-03-06T02:56:38.932Z,0.00
2023-03-06T02:57:38.897Z,0.00
2023-03-06T02:58:38.904Z,0.00
2023-03-06T02:59:38.886Z,0.00
2023-03-06T03:00:40.108Z,0.00
2023-03-06T03:01:38.853Z,0.00
2023-03-06T03:02:38.769Z,0.00
2023-03-06T03:03:38.742Z,0.00
2023-03-06T03:04:38.759Z,0.00
2023-03-06T03:05:38.690Z,0.00
2023-03-06T03:06:38.680Z,0.00
2023-03-06T03:07:38.632Z,0.00
2023-03-06T03:08:38.653Z,0.00
2023-03-06T03:09:38.576Z,0.00
2023-03-06T03:10:38.565Z,0.00
2023-03-06T03:11:38.534Z,0.00
2023-03-06T03:12:38.508Z,0.00
2023-03-06T03:13:38.480Z,0.00
2023-03-06T03:14:38.555Z,0.00
2023-03-06T03:15:38.556Z,0.00
2023-03-06T03:16:39.247Z,0.00
2023-03-06T03:17:38.383Z,0.00
2023-03-06T03:18:38.384Z,0.00
2023-03-06T03:19:38.324Z,0.00
2023-03-06T03:20:38.305Z,0.00
2023-03-06T03:21:38.274Z,0.00
2023-03-06T03:22:38.250Z,0.00
2023-03-06T03:23:38.227Z,0.00
2023-03-06T03:24:38.239Z,0.00
2023-03-06T03:25:38.474Z,0.00
2023-03-06T03:26:38.163Z,0.00
2023-03-06T03:27:38.149Z,0.00
2023-03-06T03:28:38.101Z,0.00
2023-03-06T03:29:38.073Z,0.00
2023-03-06T03:30:38.050Z,0.00
2023-03-06T03:31:38.023Z,0.00
2023-03-06T03:32:38.075Z,0.00
2023-03-06T03:33:37.967Z,0.00
2023-03-06T03:34:37.946Z,0.00
2023-03-06T03:35:38.050Z,0.00
2023-03-06T03:36:37.898Z,0.00
2023-03-06T03:37:37.861Z,0.00
2023-03-06T03:38:37.841Z,0.00
2023-03-06T03:39:37.809Z,0.00
2023-03-06T03:40:37.796Z,0.00
2023-03-06T03:41:37.813Z,0.00
2023-03-06T03:42:37.771Z,0.00
2023-03-06T03:43:37.734Z,0.00
2023-03-06T03:44:37.715Z,0.00
2023-03-06T03:45:37.662Z,0.00
2023-03-06T03:46:37.664Z,0.00
2023-03-06T03:47:37.604Z,0.00
2023-03-06T03:48:37.602Z,0.00
2023-03-06T03:49:37.551Z,0.00
2023-03-06T03:50:37.535Z,0.00
2023-03-06T03:51:37.510Z,0.00
2023-03-06T03:52:37.481Z,0.00
2023-03-06T03:53:37.478Z,0.00
2023-03-06T03:54:37.427Z,0.00
2023-03-06T03:55:37.391Z,0.00
2023-03-06T03:56:37.374Z,0.00
2023-03-06T03:57:37.348Z,0.00
2023-03-06T03:58:37.327Z,0.00
2023-03-06T03:59:37.293Z,0.00
2023-03-06T04:00:37.271Z,0.00
2023-03-06T04:01:39.551Z,0.00
2023-03-06T04:02:37.291Z,0.00
2023-03-06T04:03:37.239Z,0.00
2023-03-06T04:04:37.188Z,0.00
2023-03-06T04:05:37.161Z,0.00
2023-03-06T04:06:37.140Z,0.00
2023-03-06T04:07:37.097Z,0.00
2023-03-06T04:08:37.086Z,0.00
2023-03-06T04:09:37.036Z,0.00
2023-03-06T04:10:37.011Z,0.00
2023-03-06T04:11:37.020Z,0.00
2023-03-06T04:12:36.968Z,0.00
2023-03-06T04:13:36.944Z,0.00
2023-03-06T04:14:36.952Z,0.00
2023-03-06T04:15:36.880Z,0.00
2023-03-06T04:16:37.030Z,0.00
2023-03-06T04:17:36.833Z,0.00
2023-03-06T04:18:36.819Z,0.00
2023-03-06T04:19:36.815Z,0.00
2023-03-06T04:20:36.766Z,0.00
2023-03-06T04:21:36.786Z,0.00
2023-03-06T04:22:36.752Z,0.00
2023-03-06T04:23:36.698Z,0.00
2023-03-06T04:24:36.656Z,0.00
2023-03-06T04:25:36.650Z,0.00
2023-03-06T04:26:36.599Z,0.00
2023-03-06T04:27:36.566Z,0.00
2023-03-06T04:28:36.541Z,0.00
2023-03-06T04:29:36.509Z,0.00
2023-03-06T04:30:36.495Z,0.00
2023-03-06T04:31:36.519Z,0.00
2023-03-06T04:32:36.531Z,0.00
2023-03-06T04:33:36.441Z,0.00
2023-03-06T04:34:36.394Z,0.00
2023-03-06T04:35:36.428Z,0.00
2023-03-06T04:36:36.393Z,0.00
2023-03-06T04:37:36.339Z,0.00
2023-03-06T04:38:36.342Z,0.00
2023-03-06T04:39:36.274Z,0.00
2023-03-06T04:40:36.240Z,0.00
2023-03-06T04:41:36.224Z,0.00
2023-03-06T04:42:36.178Z,0.00
2023-03-06T04:43:36.183Z,0.00
2023-03-06T04:44:36.298Z,0.00
2023-03-06T04:45:36.170Z,0.00
2023-03-06T04:46:36.084Z,0.00
2023-03-06T04:47:36.044Z,0.00
2023-03-06T04:48:36.092Z,0.00
2023-03-06T04:49:36.047Z,0.00
2023-03-06T04:50:36.027Z,0.00
2023-03-06T04:51:35.951Z,0.00
2023-03-06T04:52:35.922Z,0.00
2023-03-06T04:53:35.899Z,0.00
2023-03-06T04:54:35.875Z,0.00
2023-03-06T04:55:35.840Z,0.00
2023-03-06T04:56:35.829Z,0.00
2023-03-06T04:57:35.795Z,0.00
2023-03-06T04:58:35.767Z,0.00
2023-03-06T04:59:38.754Z,0.00
2023-03-06T05:00:35.715Z,0.00
2023-03-06T05:01:35.684Z,0.00
2023-03-06T05:02:35.663Z,0.00
2023-03-06T05:03:35.660Z,0.00
2023-03-06T05:04:35.617Z,0.00
2023-03-06T05:05:35.581Z,0.00
2023-03-06T05:06:35.557Z,0.00
2023-03-06T05:07:35.524Z,0.00
2023-03-06T05:08:35.504Z,0.00
2023-03-06T05:09:36.848Z,0.00
2023-03-06T05:10:35.486Z,0.00
2023-03-06T05:11:35.425Z,0.00
2023-03-06T05:12:35.400Z,0.00
2023-03-06T05:13:35.376Z,0.00
2023-03-06T05:14:35.355Z,0.00
2023-03-06T05:15:35.322Z,0.00
2023-03-06T05:16:35.334Z,0.00
2023-03-06T05:17:35.273Z,0.00
2023-03-06T05:18:35.246Z,0.00
2023-03-06T05:19:35.213Z,0.00
2023-03-06T05:20:35.200Z,0.00
2023-03-06T05:21:35.163Z,0.00
2023-03-06T05:22:35.140Z,0.00
2023-03-06T05:23:35.105Z,0.00
2023-03-06T05:24:35.094Z,0.00
2023-03-06T05:25:35.058Z,0.00
2023-03-06T05:26:35.034Z,0.00
2023-03-06T05:27:35.018Z,0.00
2023-03-06T05:28:34.984Z,0.00
2023-03-06T05:29:34.953Z,0.00
2023-03-06T05:30:35.045Z,0.00
2023-03-06T05:31:34.975Z,0.00
2023-03-06T05:32:35.804Z,0.00
2023-03-06T05:33:34.849Z,0.00
2023-03-06T05:34:34.828Z,0.00
2023-03-06T05:35:34.847Z,0.00
2023-03-06T05:36:34.773Z,0.00
2023-03-06T05:37:34.756Z,0.00
2023-03-06T05:38:34.724Z,4.00
2023-03-06T05:39:34.697Z,4.00
2023-03-06T05:40:34.673Z,4.00
2023-03-06T05:41:34.653Z,4.00
2023-03-06T05:42:34.630Z,4.00
2023-03-06T05:43:34.610Z,8.00
2023-03-06T05:44:34.571Z,8.00
2023-03-06T05:45:34.571Z,12.00
2023-03-06T05:46:34.522Z,12.00
2023-03-06T05:47:34.502Z,16.00
2023-03-06T05:48:34.484Z,16.00
2023-03-06T05:49:34.449Z,24.00
2023-03-06T05:50:34.405Z,24.00
2023-03-06T05:51:34.386Z,28.00
2023-03-06T05:52:34.362Z,36.00
2023-03-06T05:53:34.335Z,44.00
2023-03-06T05:54:34.303Z,44.00
2023-03-06T05:55:34.294Z,52.00
2023-03-06T05:56:34.253Z,64.00
2023-03-06T05:57:34.235Z,68.00
2023-03-06T05:58:34.216Z,76.00
2023-03-06T05:59:34.172Z,80.00
2023-03-06T06:00:34.149Z,84.00
2023-03-06T06:01:34.130Z,88.00
2023-03-06T06:02:34.175Z,96.00
2023-03-06T06:03:34.129Z,112.00
2023-03-06T06:04:34.068Z,136.00
2023-03-06T06:05:34.033Z,156.00
2023-03-06T06:06:34.005Z,168.00
2023-03-06T06:07:33.971Z,188.00
2023-03-06T06:08:33.950Z,200.00
2023-03-06T06:09:33.939Z,220.00
2023-03-06T06:10:33.886Z,232.00
2023-03-06T06:11:33.857Z,248.00
2023-03-06T06:12:33.832Z,264.00
2023-03-06T06:13:33.830Z,272.00
2023-03-06T06:14:33.775Z,292.00
2023-03-06T06:15:33.784Z,316.00
2023-03-06T06:16:33.737Z,336.00
2023-03-06T06:17:33.711Z,344.00
2023-03-06T06:18:33.680Z,360.00
2023-03-06T06:19:33.649Z,380.00
2023-03-06T06:20:33.625Z,396.00
2023-03-06T06:21:33.597Z,424.00
2023-03-06T06:22:33.578Z,460.00
2023-03-06T06:23:33.546Z,488.00
2023-03-06T06:24:33.518Z,512.00
2023-03-06T06:25:33.492Z,532.00
2023-03-06T06:26:33.464Z,540.00
2023-03-06T06:27:33.449Z,556.00
2023-03-06T06:28:33.414Z,560.00
2023-03-06T06:29:33.396Z,576.00
2023-03-06T06:30:33.363Z,592.00
2023-03-06T06:31:33.443Z,596.00
2023-03-06T06:32:33.375Z,616.00
2023-03-06T06:33:33.290Z,644.00
2023-03-06T06:34:33.258Z,672.00
2023-03-06T06:35:33.266Z,708.00
2023-03-06T06:36:33.212Z,728.00
2023-03-06T06:37:33.187Z,752.00
2023-03-06T06:38:33.148Z,780.00
2023-03-06T06:39:33.142Z,784.00
2023-03-06T06:40:33.099Z,800.00
2023-03-06T06:41:53.121Z,848.00
2023-03-06T06:42:38.993Z,916.00
2023-03-06T06:43:33.037Z,988.00
2023-03-06T06:44:33.011Z,1008.00
2023-03-06T06:45:32.978Z,1044.00
2023-03-06T06:47:18.228Z,1096.00
2023-03-06T06:47:32.998Z,1144.00
2023-03-06T06:48:32.893Z,1156.00
2023-03-06T06:49:32.889Z,1160.00
2023-03-06T06:50:32.879Z,1164.00
2023-03-06T06:51:32.816Z,1132.00
2023-03-06T06:52:32.792Z,1096.00
2023-03-06T06:53:32.764Z,1100.00
2023-03-06T06:54:32.740Z,1104.00
2023-03-06T06:55:32.716Z,1068.00
2023-03-06T06:56:32.681Z,944.00
2023-03-06T06:57:32.659Z,828.00
2023-03-06T06:58:32.660Z,824.00
2023-03-06T06:59:32.610Z,880.00
2023-03-06T07:00:32.651Z,1036.00
2023-03-06T07:01:32.652Z,1112.00
2023-03-06T07:02:32.546Z,1108.00
2023-03-06T07:03:32.543Z,1060.00
2023-03-06T07:04:32.495Z,940.00
2023-03-06T07:05:32.454Z,856.00
2023-03-06T07:06:32.506Z,852.00
2023-03-06T07:07:32.427Z,836.00
2023-03-06T07:08:32.376Z,860.00
2023-03-06T07:09:32.360Z,868.00
2023-03-06T07:10:32.333Z,740.00
2023-03-06T07:11:32.306Z,676.00
2023-03-06T07:12:32.270Z,636.00
2023-03-06T07:13:32.244Z,628.00
2023-03-06T07:14:32.225Z,624.00
2023-03-06T07:15:32.205Z,664.00
2023-03-06T07:16:32.170Z,764.00
2023-03-06T07:17:32.177Z,868.00
2023-03-06T07:18:32.170Z,944.00
2023-03-06T07:19:32.109Z,952.00
2023-03-06T07:20:32.073Z,944.00
2023-03-06T07:21:32.043Z,1044.00
2023-03-06T07:22:44.793Z,1180.00
2023-03-06T07:23:31.995Z,1256.00
2023-03-06T07:24:31.972Z,1308.00
2023-03-06T07:25:31.988Z,1396.00
2023-03-06T07:26:34.456Z,1420.00
2023-03-06T07:27:31.918Z,1456.00
2023-03-06T07:28:40.108Z,1516.00
2023-03-06T07:29:31.830Z,1580.00
2023-03-06T07:30:31.830Z,1700.00
2023-03-06T07:31:31.789Z,1880.00
2023-03-06T07:32:31.790Z,2104.00
2023-03-06T07:33:31.758Z,2368.00
2023-03-06T07:34:31.706Z,2612.00
2023-03-06T07:35:31.702Z,2820.00
2023-03-06T07:36:31.647Z,3000.00
2023-03-06T07:37:31.626Z,3144.00
2023-03-06T07:38:31.602Z,3172.00
2023-03-06T07:39:31.578Z,3136.00
2023-03-06T07:40:31.565Z,3088.00
2023-03-06T07:41:31.525Z,3020.00
2023-03-06T07:42:31.510Z,2992.00
2023-03-06T07:43:31.470Z,3056.00
2023-03-06T07:44:31.446Z,2892.00
2023-03-06T07:45:31.420Z,2428.00
2023-03-06T07:46:31.484Z,1980.00
2023-03-06T07:47:31.373Z,1700.00
2023-03-06T07:48:31.342Z,1560.00
2023-03-06T07:49:31.333Z,1480.00
2023-03-06T07:50:31.332Z,1336.00
2023-03-06T07:51:31.274Z,1268.00
2023-03-06T07:52:31.237Z,1496.00
2023-03-06T07:53:31.221Z,1968.00
2023-03-06T07:54:31.204Z,2716.00
2023-03-06T07:55:31.170Z,3904.00
2023-03-06T07:56:31.154Z,5504.00
2023-03-06T07:57:31.143Z,7036.00
2023-03-06T07:58:31.122Z,7428.00
2023-03-06T07:59:31.067Z,8032.00
2023-03-06T08:00:31.041Z,9248.00
2023-03-06T08:01:31.011Z,10000.00
2023-03-06T08:02:30.988Z,10244.00
2023-03-06T08:03:30.985Z,10572.00
2023-03-06T08:04:30.941Z,10860.00
2023-03-06T08:05:30.909Z,10760.00
2023-03-06T08:06:30.884Z,10192.00
2023-03-06T08:07:30.862Z,9392.00
2023-03-06T08:08:30.832Z,8736.00
2023-03-06T08:09:30.812Z,7896.00
2023-03-06T08:10:30.775Z,7236.00
2023-03-06T08:11:30.756Z,6672.00
2023-03-06T08:12:30.729Z,6232.00
2023-03-06T08:13:30.711Z,5860.00
2023-03-06T08:14:30.753Z,5452.00
2023-03-06T08:15:30.660Z,5124.00
2023-03-06T08:16:30.667Z,5044.00
2023-03-06T08:17:30.606Z,5108.00
2023-03-06T08:18:30.577Z,5204.00
2023-03-06T08:19:30.562Z,5292.00
2023-03-06T08:20:30.541Z,5288.00
2023-03-06T08:21:30.515Z,5180.00
2023-03-06T08:22:30.475Z,5056.00
2023-03-06T08:23:30.451Z,4888.00
2023-03-06T08:24:30.426Z,4652.00
2023-03-06T08:25:30.406Z,4564.00
2023-03-06T08:26:30.369Z,4300.00
2023-03-06T08:27:30.352Z,3560.00
2023-03-06T08:28:30.320Z,2932.00
2023-03-06T08:29:32.077Z,2956.00
2023-03-06T08:30:30.274Z,3068.00
2023-03-06T08:31:30.338Z,3348.00
2023-03-06T08:32:30.386Z,3464.00
2023-03-06T08:33:30.199Z,3692.00
2023-03-06T08:34:30.194Z,4084.00
2023-03-06T08:35:30.202Z,4028.00
2023-03-06T08:36:30.148Z,4020.00
2023-03-06T08:37:30.197Z,4088.00
2023-03-06T08:38:30.071Z,4620.00
2023-03-06T08:39:30.050Z,4844.00
2023-03-06T08:40:30.013Z,4472.00
2023-03-06T08:41:29.993Z,3928.00
2023-03-06T08:42:29.976Z,4148.00
2023-03-06T08:43:29.944Z,4232.00
2023-03-06T08:44:29.916Z,4672.00
2023-03-06T08:45:29.940Z,4988.00
2023-03-06T08:46:29.863Z,5092.00
2023-03-06T08:47:29.855Z,4948.00
2023-03-06T08:48:29.821Z,4640.00
2023-03-06T08:49:29.790Z,3988.00
2023-03-06T08:50:29.761Z,3644.00
2023-03-06T08:51:29.744Z,3352.00
2023-03-06T08:52:29.712Z,3344.00
2023-03-06T08:53:42.102Z,3476.00
2023-03-06T08:54:29.662Z,3076.00
2023-03-06T08:55:29.651Z,2804.00
2023-03-06T08:56:29.617Z,2880.00
2023-03-06T08:57:29.588Z,3452.00
2023-03-06T08:58:29.553Z,3952.00
2023-03-06T08:59:29.534Z,3752.00
2023-03-06T09:00:29.537Z,3956.00
2023-03-06T09:01:29.570Z,4640.00
2023-03-06T09:02:29.482Z,5472.00
2023-03-06T09:03:29.439Z,5604.00
2023-03-06T09:04:29.401Z,5164.00
2023-03-06T09:05:29.406Z,5056.00
2023-03-06T09:06:29.373Z,5332.00
2023-03-06T09:07:29.333Z,5392.00
2023-03-06T09:08:29.333Z,5212.00
2023-03-06T09:09:29.303Z,4808.00
2023-03-06T09:10:29.283Z,5064.00
2023-03-06T09:11:29.229Z,5284.00
2023-03-06T09:12:30.726Z,6020.00
2023-03-06T09:13:29.197Z,6528.00
2023-03-06T09:14:29.168Z,6616.00
2023-03-06T09:15:29.167Z,6620.00
2023-03-06T09:16:29.214Z,6688.00
2023-03-06T09:17:29.115Z,6640.00
2023-03-06T09:18:29.115Z,5940.00
2023-03-06T09:19:29.030Z,5996.00
2023-03-06T09:20:29.004Z,6580.00
2023-03-06T09:21:28.976Z,6896.00
2023-03-06T09:22:28.960Z,6936.00
2023-03-06T09:23:28.926Z,6660.00
2023-03-06T09:24:28.899Z,7232.00
2023-03-06T09:25:28.885Z,7644.00
2023-03-06T09:26:43.221Z,8692.00
2023-03-06T09:27:28.828Z,9588.00
2023-03-06T09:28:28.801Z,9504.00
2023-03-06T09:29:28.778Z,8420.00
2023-03-06T09:30:28.747Z,6768.00
2023-03-06T09:31:28.724Z,6928.00
2023-03-06T09:32:28.754Z,7760.00
2023-03-06T09:33:28.752Z,8488.00
2023-03-06T09:34:28.647Z,7896.00
2023-03-06T09:35:28.653Z,6944.00
2023-03-06T09:36:28.657Z,8056.00
2023-03-06T09:37:28.585Z,9220.00
2023-03-06T09:38:28.556Z,9276.00
2023-03-06T09:39:28.533Z,8700.00
2023-03-06T09:40:28.509Z,7180.00
2023-03-06T09:41:28.482Z,7328.00
2023-03-06T09:42:28.449Z,6804.00
2023-03-06T09:43:28.435Z,5456.00
2023-03-06T09:44:28.399Z,5212.00
2023-03-06T09:45:28.374Z,5736.00
2023-03-06T09:46:28.369Z,6592.00
2023-03-06T09:47:28.327Z,7572.00
2023-03-06T09:48:28.302Z,8240.00
2023-03-06T09:49:28.273Z,9328.00
2023-03-06T09:50:28.248Z,11292.00
2023-03-06T09:51:28.222Z,12100.00
2023-03-06T09:52:28.211Z,12196.00
2023-03-06T09:53:28.173Z,11700.00
2023-03-06T09:54:28.142Z,10780.00
2023-03-06T09:55:28.129Z,9364.00
2023-03-06T09:56:28.098Z,10272.00
2023-03-06T09:57:28.106Z,11624.00
2023-03-06T09:58:28.042Z,12104.00
2023-03-06T09:59:28.021Z,12044.00
2023-03-06T10:00:27.999Z,11960.00
2023-03-06T10:01:27.993Z,11776.00
2023-03-06T10:02:28.011Z,10528.00
2023-03-06T10:03:27.979Z,9256.00
2023-03-06T10:04:27.939Z,8988.00
2023-03-06T10:05:27.865Z,9920.00
2023-03-06T10:06:27.866Z,10104.00
2023-03-06T10:07:27.824Z,9944.00
2023-03-06T10:08:27.800Z,10992.00
2023-03-06T10:09:27.766Z,13144.00
2023-03-06T10:10:27.745Z,14248.00
2023-03-06T10:11:27.728Z,14464.00
2023-03-06T10:12:27.698Z,14320.00
2023-03-06T10:13:27.728Z,13768.00
2023-03-06T10:14:27.648Z,13024.00
2023-03-06T10:15:27.660Z,12896.00
2023-03-06T10:16:27.608Z,12956.00
2023-03-06T10:17:27.572Z,13296.00
2023-03-06T10:18:27.550Z,13880.00
2023-03-06T10:19:27.528Z,13068.00
2023-03-06T10:20:27.524Z,12188.00
2023-03-06T10:21:27.480Z,12608.00
2023-03-06T10:22:27.465Z,13568.00
2023-03-06T10:23:27.433Z,13984.00
2023-03-06T10:24:27.405Z,15224.00
2023-03-06T10:25:27.402Z,16192.00
2023-03-06T10:26:27.433Z,17824.00
2023-03-06T10:27:27.331Z,19136.00
2023-03-06T10:28:27.308Z,20544.00
2023-03-06T10:29:27.280Z,20640.00
2023-03-06T10:30:27.320Z,20448.00
2023-03-06T10:31:27.305Z,18784.00
2023-03-06T10:32:32.155Z,18272.00
2023-03-06T10:33:27.184Z,17032.00
2023-03-06T10:34:27.166Z,15964.00
2023-03-06T10:35:29.989Z,14532.00
2023-03-06T10:36:27.161Z,14132.00
2023-03-06T10:37:27.089Z,17440.00
2023-03-06T10:38:27.105Z,17824.00
2023-03-06T10:39:27.042Z,20384.00
2023-03-06T10:40:27.028Z,22976.00
2023-03-06T10:41:26.996Z,20384.00
2023-03-06T10:42:28.898Z,17728.00
2023-03-06T10:43:26.946Z,19744.00
2023-03-06T10:44:26.929Z,18912.00
2023-03-06T10:45:26.911Z,15196.00
2023-03-06T10:46:26.925Z,17632.00
2023-03-06T10:47:26.877Z,25312.00
2023-03-06T10:48:26.837Z,23296.00
2023-03-06T10:49:26.825Z,20992.00
2023-03-06T10:50:26.785Z,19264.00
2023-03-06T10:51:26.760Z,18720.00
2023-03-06T10:52:26.738Z,20544.00
2023-03-06T10:53:26.722Z,22112.00
2023-03-06T10:54:26.689Z,20256.00
2023-03-06T10:55:26.666Z,17888.00
2023-03-06T10:56:26.652Z,16112.00
2023-03-06T10:57:26.644Z,13124.00
2023-03-06T10:58:26.596Z,12468.00
2023-03-06T10:59:26.590Z,14148.00
2023-03-06T11:00:26.558Z,13528.00
2023-03-06T11:01:26.569Z,13456.00
2023-03-06T11:02:26.498Z,13556.00
2023-03-06T11:03:26.490Z,13928.00
2023-03-06T11:04:26.526Z,11908.00
2023-03-06T11:05:26.429Z,11028.00
2023-03-06T11:06:26.408Z,12812.00
2023-03-06T11:07:26.377Z,17152.00
2023-03-06T11:08:26.363Z,12572.00
2023-03-06T11:09:26.340Z,11388.00
2023-03-06T11:10:26.321Z,9740.00
2023-03-06T11:11:37.064Z,9688.00
2023-03-06T11:12:26.278Z,11308.00
2023-03-06T11:13:26.240Z,14012.00
2023-03-06T11:14:27.704Z,18048.00
2023-03-06T11:15:26.196Z,19232.00
2023-03-06T11:16:26.282Z,19712.00
2023-03-06T11:17:26.149Z,16376.00
2023-03-06T11:18:26.121Z,15624.00
2023-03-06T11:19:26.122Z,14332.00
2023-03-06T11:20:26.079Z,11496.00
2023-03-06T11:21:26.046Z,8824.00
2023-03-06T11:22:26.041Z,7132.00
2023-03-06T11:23:26.003Z,7316.00
2023-03-06T11:24:25.982Z,8396.00
2023-03-06T11:25:25.958Z,9532.00
2023-03-06T11:26:25.932Z,11640.00
2023-03-06T11:27:25.910Z,15384.00
2023-03-06T11:28:25.887Z,18176.00
2023-03-06T11:29:25.952Z,17600.00
2023-03-06T11:30:25.849Z,14904.00
2023-03-06T11:31:25.876Z,12920.00
2023-03-06T11:32:25.931Z,13392.00
2023-03-06T11:33:25.758Z,14584.00
2023-03-06T11:34:25.737Z,16316.00
2023-03-06T11:35:25.764Z,14296.00
2023-03-06T11:36:25.705Z,14068.00
2023-03-06T11:37:25.660Z,13968.00
2023-03-06T11:38:25.644Z,14560.00
2023-03-06T11:39:25.620Z,16632.00
2023-03-06T11:40:25.596Z,16412.00
2023-03-06T11:41:25.562Z,15004.00
2023-03-06T11:42:25.548Z,13824.00
2023-03-06T11:43:25.532Z,13704.00
2023-03-06T11:44:25.509Z,15808.00
2023-03-06T11:45:25.488Z,17504.00
2023-03-06T11:46:25.525Z,18944.00
2023-03-06T11:47:25.456Z,19104.00
2023-03-06T11:48:25.427Z,19424.00
2023-03-06T11:49:25.375Z,20032.00
2023-03-06T11:50:25.355Z,19872.00
2023-03-06T11:51:25.344Z,20992.00
2023-03-06T11:52:25.317Z,22944.00
2023-03-06T11:53:25.290Z,23264.00
2023-03-06T11:54:25.275Z,22368.00
2023-03-06T11:55:25.233Z,21472.00
2023-03-06T11:56:25.220Z,20672.00
2023-03-06T11:57:25.183Z,22752.00
2023-03-06T11:58:25.168Z,23168.00
2023-03-06T11:59:25.142Z,23936.00
2023-03-06T12:00:25.121Z,26752.00
2023-03-06T12:01:25.103Z,24416.00
2023-03-06T12:02:25.195Z,22400.00
2023-03-06T12:03:25.065Z,22176.00
2023-03-06T12:04:25.034Z,23456.00
2023-03-06T12:05:25.031Z,21472.00
2023-03-06T12:06:24.988Z,22336.00
2023-03-06T12:07:24.963Z,19712.00
2023-03-06T12:08:24.948Z,19488.00
2023-03-06T12:09:24.910Z,18624.00
2023-03-06T12:10:24.905Z,19072.00
2023-03-06T12:11:24.885Z,18528.00
2023-03-06T12:12:24.868Z,18464.00
2023-03-06T12:14:24.810Z,15692.00
2023-03-06T12:15:24.784Z,16696.00
2023-03-06T12:16:24.838Z,18560.00
2023-03-06T12:17:24.733Z,17504.00
2023-03-06T12:18:24.719Z,17080.00
2023-03-06T12:19:24.697Z,19488.00
2023-03-06T12:20:24.685Z,17696.00
2023-03-06T12:21:24.650Z,19040.00
2023-03-06T12:22:24.627Z,18560.00
2023-03-06T12:23:24.598Z,16428.00
2023-03-06T12:24:24.592Z,15428.00
2023-03-06T12:25:24.552Z,16148.00
2023-03-06T12:26:24.533Z,16040.00
2023-03-06T12:27:24.514Z,15968.00
2023-03-06T12:28:24.491Z,15900.00
2023-03-06T12:29:24.461Z,14544.00
2023-03-06T12:30:24.451Z,14172.00
2023-03-06T12:31:24.475Z,15116.00
2023-03-06T12:32:24.420Z,13472.00
2023-03-06T12:33:24.371Z,13232.00
2023-03-06T12:34:24.352Z,12568.00
2023-03-06T12:35:24.385Z,12612.00
2023-03-06T12:36:24.306Z,12152.00